sensor_id;sensor_type;location;lat;lon;timestamp;P1;durP1;ratioP1;P2;durP2;ratioP2
2620;SDS011;1320;48.128;11.592;2024-01-06T00:00:31;9.83;;;6.03;;
2620;SDS011;1320;48.128;11.592;2024-01-06T00:02:57;11.53;;;7.60;;
2620;SDS011;1320;48.128;11.592;2024-01-06T00:05:23;10.83;;;6.70;;
2620;SDS011;1320;48.128;11.592;2024-01-06T00:07:48;10.43;;;7.20;;
2620;SDS011;1320;48.128;11.592;2024-01-06T00:10:20;11.03;;;7.60;;
2620;SDS011;1320;48.128;11.592;2024-01-06T00:12:46;12.27;;;7.73;;
2620;SDS011;1320;48.128;11.592;2024-01-06T00:15:11;11.70;;;7.30;;
2620;SDS011;1320;48.128;11.592;2024-01-06T00:17:37;8.77;;;5.63;;
2620;SDS011;1320;48.128;11.592;2024-01-06T00:20:03;9.47;;;6.30;;
2620;SDS011;1320;48.128;11.592;2024-01-06T00:22:29;9.67;;;5.90;;
2620;SDS011;1320;48.128;11.592;2024-01-06T00:24:55;9.50;;;6.40;;
2620;SDS011;1320;48.128;11.592;2024-01-06T00:27:20;13.53;;;6.23;;
2620;SDS011;1320;48.128;11.592;2024-01-06T00:29:46;17.63;;;12.43;;
2620;SDS011;1320;48.128;11.592;2024-01-06T00:32:12;11.17;;;6.80;;
2620;SDS011;1320;48.128;11.592;2024-01-06T00:34:38;8.30;;;6.00;;
2620;SDS011;1320;48.128;11.592;2024-01-06T00:37:03;12.63;;;7.37;;
2620;SDS011;1320;48.128;11.592;2024-01-06T00:39:29;9.00;;;6.03;;
2620;SDS011;1320;48.128;11.592;2024-01-06T00:41:55;8.77;;;5.90;;
2620;SDS011;1320;48.128;11.592;2024-01-06T00:44:20;10.87;;;5.80;;
2620;SDS011;1320;48.128;11.592;2024-01-06T00:46:46;11.20;;;6.30;;
2620;SDS011;1320;48.128;11.592;2024-01-06T00:49:12;9.27;;;5.57;;
2620;SDS011;1320;48.128;11.592;2024-01-06T00:51:37;11.60;;;5.63;;
2620;SDS011;1320;48.128;11.592;2024-01-06T00:54:03;8.53;;;6.10;;
2620;SDS011;1320;48.128;11.592;2024-01-06T00:56:28;9.27;;;5.40;;
2620;SDS011;1320;48.128;11.592;2024-01-06T00:58:54;7.63;;;5.27;;
2620;SDS011;1320;48.128;11.592;2024-01-06T01:01:20;10.10;;;5.40;;
2620;SDS011;1320;48.128;11.592;2024-01-06T01:03:46;11.10;;;5.70;;
2620;SDS011;1320;48.128;11.592;2024-01-06T01:06:12;8.87;;;4.87;;
2620;SDS011;1320;48.128;11.592;2024-01-06T01:08:38;6.53;;;3.90;;
2620;SDS011;1320;48.128;11.592;2024-01-06T01:11:03;7.20;;;4.17;;
2620;SDS011;1320;48.128;11.592;2024-01-06T01:13:29;8.00;;;4.50;;
2620;SDS011;1320;48.128;11.592;2024-01-06T01:15:55;7.50;;;4.30;;
2620;SDS011;1320;48.128;11.592;2024-01-06T01:18:21;7.67;;;3.47;;
2620;SDS011;1320;48.128;11.592;2024-01-06T01:20:46;6.23;;;2.53;;
2620;SDS011;1320;48.128;11.592;2024-01-06T01:23:12;5.50;;;2.87;;
2620;SDS011;1320;48.128;11.592;2024-01-06T01:25:38;5.40;;;2.80;;
2620;SDS011;1320;48.128;11.592;2024-01-06T01:28:04;6.27;;;2.83;;
2620;SDS011;1320;48.128;11.592;2024-01-06T01:30:29;5.33;;;2.53;;
2620;SDS011;1320;48.128;11.592;2024-01-06T01:32:57;5.45;;;2.80;;
2620;SDS011;1320;48.128;11.592;2024-01-06T01:35:23;5.60;;;2.67;;
2620;SDS011;1320;48.128;11.592;2024-01-06T01:37:48;6.40;;;3.20;;
2620;SDS011;1320;48.128;11.592;2024-01-06T01:40:16;7.30;;;3.57;;
2620;SDS011;1320;48.128;11.592;2024-01-06T01:42:42;7.20;;;3.40;;
2620;SDS011;1320;48.128;11.592;2024-01-06T01:45:08;5.93;;;3.33;;
2620;SDS011;1320;48.128;11.592;2024-01-06T01:47:34;6.27;;;2.53;;
2620;SDS011;1320;48.128;11.592;2024-01-06T01:50:01;5.10;;;2.10;;
2620;SDS011;1320;48.128;11.592;2024-01-06T01:52:28;7.47;;;3.40;;
2620;SDS011;1320;48.128;11.592;2024-01-06T01:54:53;5.37;;;2.50;;
2620;SDS011;1320;48.128;11.592;2024-01-06T01:57:19;4.73;;;1.90;;
2620;SDS011;1320;48.128;11.592;2024-01-06T01:59:48;6.30;;;2.63;;
2620;SDS011;1320;48.128;11.592;2024-01-06T02:02:14;5.43;;;2.27;;
2620;SDS011;1320;48.128;11.592;2024-01-06T02:04:42;4.67;;;1.80;;
2620;SDS011;1320;48.128;11.592;2024-01-06T02:07:07;5.73;;;2.40;;
2620;SDS011;1320;48.128;11.592;2024-01-06T02:09:33;4.90;;;2.07;;
2620;SDS011;1320;48.128;11.592;2024-01-06T02:11:59;5.23;;;2.27;;
2620;SDS011;1320;48.128;11.592;2024-01-06T02:14:24;5.10;;;2.20;;
2620;SDS011;1320;48.128;11.592;2024-01-06T02:16:50;4.90;;;2.10;;
2620;SDS011;1320;48.128;11.592;2024-01-06T02:19:16;5.67;;;2.40;;
2620;SDS011;1320;48.128;11.592;2024-01-06T02:21:43;5.70;;;2.40;;
2620;SDS011;1320;48.128;11.592;2024-01-06T02:24:09;5.97;;;1.90;;
2620;SDS011;1320;48.128;11.592;2024-01-06T02:26:35;5.50;;;2.40;;
2620;SDS011;1320;48.128;11.592;2024-01-06T02:29:01;6.17;;;2.50;;
2620;SDS011;1320;48.128;11.592;2024-01-06T02:31:27;5.50;;;1.90;;
2620;SDS011;1320;48.128;11.592;2024-01-06T02:33:53;6.33;;;2.33;;
2620;SDS011;1320;48.128;11.592;2024-01-06T02:36:18;6.23;;;2.07;;
2620;SDS011;1320;48.128;11.592;2024-01-06T02:38:44;5.27;;;2.20;;
2620;SDS011;1320;48.128;11.592;2024-01-06T02:41:10;6.13;;;2.20;;
2620;SDS011;1320;48.128;11.592;2024-01-06T02:43:35;5.87;;;1.47;;
2620;SDS011;1320;48.128;11.592;2024-01-06T02:46:01;5.10;;;1.70;;
2620;SDS011;1320;48.128;11.592;2024-01-06T02:48:27;4.53;;;1.80;;
2620;SDS011;1320;48.128;11.592;2024-01-06T02:50:55;4.80;;;2.03;;
2620;SDS011;1320;48.128;11.592;2024-01-06T02:53:21;5.50;;;2.13;;
2620;SDS011;1320;48.128;11.592;2024-01-06T02:55:47;5.20;;;2.13;;
2620;SDS011;1320;48.128;11.592;2024-01-06T02:58:13;4.43;;;1.70;;
2620;SDS011;1320;48.128;11.592;2024-01-06T03:00:38;5.73;;;2.07;;
2620;SDS011;1320;48.128;11.592;2024-01-06T03:03:04;4.37;;;2.00;;
2620;SDS011;1320;48.128;11.592;2024-01-06T03:05:30;4.77;;;1.77;;
2620;SDS011;1320;48.128;11.592;2024-01-06T03:07:56;6.47;;;2.13;;
2620;SDS011;1320;48.128;11.592;2024-01-06T03:10:23;5.10;;;1.73;;
2620;SDS011;1320;48.128;11.592;2024-01-06T03:12:49;6.47;;;2.40;;
2620;SDS011;1320;48.128;11.592;2024-01-06T03:15:14;8.07;;;1.77;;
2620;SDS011;1320;48.128;11.592;2024-01-06T03:17:40;5.30;;;2.03;;
2620;SDS011;1320;48.128;11.592;2024-01-06T03:20:06;5.17;;;1.87;;
2620;SDS011;1320;48.128;11.592;2024-01-06T03:22:32;6.40;;;2.23;;
2620;SDS011;1320;48.128;11.592;2024-01-06T03:24:58;5.67;;;2.30;;
2620;SDS011;1320;48.128;11.592;2024-01-06T03:27:23;6.17;;;2.33;;
2620;SDS011;1320;48.128;11.592;2024-01-06T03:29:49;6.57;;;2.50;;
2620;SDS011;1320;48.128;11.592;2024-01-06T03:32:15;5.10;;;2.10;;
2620;SDS011;1320;48.128;11.592;2024-01-06T03:34:41;6.40;;;2.47;;
2620;SDS011;1320;48.128;11.592;2024-01-06T03:37:07;9.60;;;2.73;;
2620;SDS011;1320;48.128;11.592;2024-01-06T03:39:32;4.60;;;2.00;;
2620;SDS011;1320;48.128;11.592;2024-01-06T03:41:59;5.37;;;2.50;;
2620;SDS011;1320;48.128;11.592;2024-01-06T03:44:25;4.73;;;2.10;;
2620;SDS011;1320;48.128;11.592;2024-01-06T03:46:55;4.83;;;1.90;;
2620;SDS011;1320;48.128;11.592;2024-01-06T03:49:22;6.00;;;2.57;;
2620;SDS011;1320;48.128;11.592;2024-01-06T03:51:48;5.87;;;2.50;;
2620;SDS011;1320;48.128;11.592;2024-01-06T03:54:14;6.33;;;2.30;;
2620;SDS011;1320;48.128;11.592;2024-01-06T03:56:39;5.60;;;2.23;;
2620;SDS011;1320;48.128;11.592;2024-01-06T03:59:05;7.10;;;2.40;;
2620;SDS011;1320;48.128;11.592;2024-01-06T04:01:31;4.90;;;1.87;;
2620;SDS011;1320;48.128;11.592;2024-01-06T04:04:00;5.73;;;2.40;;
2620;SDS011;1320;48.128;11.592;2024-01-06T04:06:26;5.87;;;2.13;;
2620;SDS011;1320;48.128;11.592;2024-01-06T04:08:52;5.43;;;2.37;;
2620;SDS011;1320;48.128;11.592;2024-01-06T04:11:20;4.60;;;1.70;;
2620;SDS011;1320;48.128;11.592;2024-01-06T04:13:46;5.47;;;2.10;;
2620;SDS011;1320;48.128;11.592;2024-01-06T04:16:11;4.80;;;1.97;;
2620;SDS011;1320;48.128;11.592;2024-01-06T04:18:37;4.93;;;2.13;;
2620;SDS011;1320;48.128;11.592;2024-01-06T04:21:03;5.03;;;2.10;;
2620;SDS011;1320;48.128;11.592;2024-01-06T04:23:30;4.37;;;1.50;;
2620;SDS011;1320;48.128;11.592;2024-01-06T04:25:56;4.70;;;1.97;;
2620;SDS011;1320;48.128;11.592;2024-01-06T04:28:21;4.43;;;1.40;;
2620;SDS011;1320;48.128;11.592;2024-01-06T04:30:48;5.53;;;2.07;;
2620;SDS011;1320;48.128;11.592;2024-01-06T04:33:14;5.30;;;1.70;;
2620;SDS011;1320;48.128;11.592;2024-01-06T04:35:40;3.90;;;1.10;;
2620;SDS011;1320;48.128;11.592;2024-01-06T04:38:05;4.47;;;1.10;;
2620;SDS011;1320;48.128;11.592;2024-01-06T04:40:31;3.90;;;1.20;;
2620;SDS011;1320;48.128;11.592;2024-01-06T04:42:56;4.30;;;1.00;;
2620;SDS011;1320;48.128;11.592;2024-01-06T04:45:22;3.67;;;0.93;;
2620;SDS011;1320;48.128;11.592;2024-01-06T04:47:49;4.33;;;0.90;;
2620;SDS011;1320;48.128;11.592;2024-01-06T04:50:15;4.43;;;1.00;;
2620;SDS011;1320;48.128;11.592;2024-01-06T04:52:42;3.60;;;0.80;;
2620;SDS011;1320;48.128;11.592;2024-01-06T04:55:08;3.70;;;1.00;;
2620;SDS011;1320;48.128;11.592;2024-01-06T04:57:34;3.60;;;0.90;;
2620;SDS011;1320;48.128;11.592;2024-01-06T05:00:00;3.63;;;0.80;;
2620;SDS011;1320;48.128;11.592;2024-01-06T05:02:26;3.30;;;0.90;;
2620;SDS011;1320;48.128;11.592;2024-01-06T05:04:52;3.30;;;0.80;;
2620;SDS011;1320;48.128;11.592;2024-01-06T05:07:17;3.70;;;0.80;;
2620;SDS011;1320;48.128;11.592;2024-01-06T05:09:43;3.50;;;0.90;;
2620;SDS011;1320;48.128;11.592;2024-01-06T05:12:09;4.00;;;0.80;;
2620;SDS011;1320;48.128;11.592;2024-01-06T05:14:34;3.90;;;0.80;;
2620;SDS011;1320;48.128;11.592;2024-01-06T05:17:00;3.73;;;0.80;;
2620;SDS011;1320;48.128;11.592;2024-01-06T05:19:25;3.30;;;0.70;;
2620;SDS011;1320;48.128;11.592;2024-01-06T05:21:51;3.60;;;0.70;;
2620;SDS011;1320;48.128;11.592;2024-01-06T05:24:17;3.50;;;0.70;;
2620;SDS011;1320;48.128;11.592;2024-01-06T05:26:44;3.83;;;0.80;;
2620;SDS011;1320;48.128;11.592;2024-01-06T05:29:10;3.67;;;1.00;;
2620;SDS011;1320;48.128;11.592;2024-01-06T05:31:35;4.50;;;1.10;;
2620;SDS011;1320;48.128;11.592;2024-01-06T05:34:01;3.77;;;0.87;;
2620;SDS011;1320;48.128;11.592;2024-01-06T05:36:27;4.10;;;1.00;;
2620;SDS011;1320;48.128;11.592;2024-01-06T05:38:52;4.87;;;1.00;;
2620;SDS011;1320;48.128;11.592;2024-01-06T05:41:18;4.20;;;1.20;;
2620;SDS011;1320;48.128;11.592;2024-01-06T05:43:44;3.87;;;0.93;;
2620;SDS011;1320;48.128;11.592;2024-01-06T05:46:09;4.87;;;1.20;;
2620;SDS011;1320;48.128;11.592;2024-01-06T05:48:35;4.70;;;1.00;;
2620;SDS011;1320;48.128;11.592;2024-01-06T05:51:03;4.47;;;1.00;;
2620;SDS011;1320;48.128;11.592;2024-01-06T05:53:30;4.10;;;1.23;;
2620;SDS011;1320;48.128;11.592;2024-01-06T05:55:56;4.23;;;1.20;;
2620;SDS011;1320;48.128;11.592;2024-01-06T05:58:22;4.97;;;1.10;;
2620;SDS011;1320;48.128;11.592;2024-01-06T06:00:51;4.90;;;1.37;;
2620;SDS011;1320;48.128;11.592;2024-01-06T06:03:16;3.95;;;1.25;;
2620;SDS011;1320;48.128;11.592;2024-01-06T06:05:42;4.07;;;1.10;;
2620;SDS011;1320;48.128;11.592;2024-01-06T06:08:08;4.00;;;1.20;;
2620;SDS011;1320;48.128;11.592;2024-01-06T06:10:33;4.40;;;1.47;;
2620;SDS011;1320;48.128;11.592;2024-01-06T06:13:06;5.63;;;1.65;;
2620;SDS011;1320;48.128;11.592;2024-01-06T06:15:35;5.63;;;2.05;;
2620;SDS011;1320;48.128;11.592;2024-01-06T06:18:01;4.87;;;1.90;;
2620;SDS011;1320;48.128;11.592;2024-01-06T06:20:27;5.30;;;2.20;;
2620;SDS011;1320;48.128;11.592;2024-01-06T06:22:52;6.93;;;2.00;;
2620;SDS011;1320;48.128;11.592;2024-01-06T06:25:18;4.80;;;1.73;;
2620;SDS011;1320;48.128;11.592;2024-01-06T06:27:44;4.83;;;1.70;;
2620;SDS011;1320;48.128;11.592;2024-01-06T06:30:09;4.17;;;1.47;;
2620;SDS011;1320;48.128;11.592;2024-01-06T06:32:35;6.38;;;2.40;;
2620;SDS011;1320;48.128;11.592;2024-01-06T06:35:01;5.37;;;2.87;;
2620;SDS011;1320;48.128;11.592;2024-01-06T06:37:27;5.43;;;1.92;;
2620;SDS011;1320;48.128;11.592;2024-01-06T06:39:53;5.57;;;2.37;;
2620;SDS011;1320;48.128;11.592;2024-01-06T06:42:19;4.50;;;1.83;;
2620;SDS011;1320;48.128;11.592;2024-01-06T06:44:44;4.57;;;2.03;;
2620;SDS011;1320;48.128;11.592;2024-01-06T06:47:10;4.30;;;2.00;;
2620;SDS011;1320;48.128;11.592;2024-01-06T06:49:36;5.03;;;2.13;;
2620;SDS011;1320;48.128;11.592;2024-01-06T06:52:01;6.00;;;2.53;;
2620;SDS011;1320;48.128;11.592;2024-01-06T06:54:28;5.38;;;1.90;;
2620;SDS011;1320;48.128;11.592;2024-01-06T06:56:54;5.67;;;2.10;;
2620;SDS011;1320;48.128;11.592;2024-01-06T06:59:20;6.40;;;1.80;;
2620;SDS011;1320;48.128;11.592;2024-01-06T07:01:51;4.73;;;2.00;;
2620;SDS011;1320;48.128;11.592;2024-01-06T07:04:17;6.25;;;2.78;;
2620;SDS011;1320;48.128;11.592;2024-01-06T07:06:43;6.30;;;2.20;;
2620;SDS011;1320;48.128;11.592;2024-01-06T07:09:08;5.07;;;2.27;;
2620;SDS011;1320;48.128;11.592;2024-01-06T07:11:34;6.07;;;2.30;;
2620;SDS011;1320;48.128;11.592;2024-01-06T07:13:59;7.27;;;3.33;;
2620;SDS011;1320;48.128;11.592;2024-01-06T07:16:25;5.23;;;2.30;;
2620;SDS011;1320;48.128;11.592;2024-01-06T07:18:51;6.17;;;2.20;;
2620;SDS011;1320;48.128;11.592;2024-01-06T07:21:16;6.40;;;2.60;;
2620;SDS011;1320;48.128;11.592;2024-01-06T07:23:42;4.23;;;1.73;;
2620;SDS011;1320;48.128;11.592;2024-01-06T07:26:08;5.30;;;1.83;;
2620;SDS011;1320;48.128;11.592;2024-01-06T07:28:33;5.63;;;2.37;;
2620;SDS011;1320;48.128;11.592;2024-01-06T07:31:00;6.33;;;2.33;;
2620;SDS011;1320;48.128;11.592;2024-01-06T07:33:25;5.15;;;2.20;;
2620;SDS011;1320;48.128;11.592;2024-01-06T07:35:51;6.90;;;2.30;;
2620;SDS011;1320;48.128;11.592;2024-01-06T07:38:17;5.93;;;2.90;;
2620;SDS011;1320;48.128;11.592;2024-01-06T07:40:42;5.20;;;2.30;;
2620;SDS011;1320;48.128;11.592;2024-01-06T07:43:09;6.18;;;2.58;;
2620;SDS011;1320;48.128;11.592;2024-01-06T07:45:35;6.00;;;2.80;;
2620;SDS011;1320;48.128;11.592;2024-01-06T07:48:00;7.63;;;3.10;;
2620;SDS011;1320;48.128;11.592;2024-01-06T07:50:26;6.97;;;2.90;;
2620;SDS011;1320;48.128;11.592;2024-01-06T07:52:53;4.90;;;2.20;;
2620;SDS011;1320;48.128;11.592;2024-01-06T07:55:19;5.50;;;2.67;;
2620;SDS011;1320;48.128;11.592;2024-01-06T07:57:45;5.68;;;2.40;;
2620;SDS011;1320;48.128;11.592;2024-01-06T08:00:11;4.80;;;2.25;;
2620;SDS011;1320;48.128;11.592;2024-01-06T08:02:40;5.78;;;2.30;;
2620;SDS011;1320;48.128;11.592;2024-01-06T08:05:06;6.03;;;2.38;;
2620;SDS011;1320;48.128;11.592;2024-01-06T08:07:32;5.75;;;2.83;;
2620;SDS011;1320;48.128;11.592;2024-01-06T08:09:58;6.93;;;2.30;;
2620;SDS011;1320;48.128;11.592;2024-01-06T08:12:24;7.00;;;2.33;;
2620;SDS011;1320;48.128;11.592;2024-01-06T08:14:49;8.00;;;2.33;;
2620;SDS011;1320;48.128;11.592;2024-01-06T08:17:15;15.60;;;8.87;;
2620;SDS011;1320;48.128;11.592;2024-01-06T08:19:41;5.40;;;2.27;;
2620;SDS011;1320;48.128;11.592;2024-01-06T08:22:07;6.57;;;2.80;;
2620;SDS011;1320;48.128;11.592;2024-01-06T08:24:32;6.80;;;3.20;;
2620;SDS011;1320;48.128;11.592;2024-01-06T08:26:59;6.28;;;2.58;;
2620;SDS011;1320;48.128;11.592;2024-01-06T08:29:24;7.40;;;3.00;;
2620;SDS011;1320;48.128;11.592;2024-01-06T08:31:50;8.97;;;3.50;;
2620;SDS011;1320;48.128;11.592;2024-01-06T08:34:17;6.47;;;3.28;;
2620;SDS011;1320;48.128;11.592;2024-01-06T08:36:43;8.40;;;3.72;;
2620;SDS011;1320;48.128;11.592;2024-01-06T08:39:09;6.57;;;3.20;;
2620;SDS011;1320;48.128;11.592;2024-01-06T08:41:35;7.20;;;4.07;;
2620;SDS011;1320;48.128;11.592;2024-01-06T08:44:01;7.13;;;2.73;;
2620;SDS011;1320;48.128;11.592;2024-01-06T08:46:26;6.80;;;3.17;;
2620;SDS011;1320;48.128;11.592;2024-01-06T08:48:52;7.43;;;3.20;;
2620;SDS011;1320;48.128;11.592;2024-01-06T08:51:18;5.87;;;2.57;;
2620;SDS011;1320;48.128;11.592;2024-01-06T08:53:45;6.10;;;2.90;;
2620;SDS011;1320;48.128;11.592;2024-01-06T08:56:11;7.30;;;2.80;;
2620;SDS011;1320;48.128;11.592;2024-01-06T08:58:37;6.23;;;2.90;;
2620;SDS011;1320;48.128;11.592;2024-01-06T09:01:03;7.97;;;3.33;;
2620;SDS011;1320;48.128;11.592;2024-01-06T09:03:28;7.63;;;3.10;;
2620;SDS011;1320;48.128;11.592;2024-01-06T09:05:57;5.80;;;2.33;;
2620;SDS011;1320;48.128;11.592;2024-01-06T09:08:23;5.40;;;2.40;;
2620;SDS011;1320;48.128;11.592;2024-01-06T09:10:49;9.03;;;2.70;;
2620;SDS011;1320;48.128;11.592;2024-01-06T09:13:22;7.60;;;2.70;;
2620;SDS011;1320;48.128;11.592;2024-01-06T09:15:48;5.57;;;2.40;;
2620;SDS011;1320;48.128;11.592;2024-01-06T09:18:14;5.97;;;3.00;;
2620;SDS011;1320;48.128;11.592;2024-01-06T09:20:40;5.50;;;2.00;;
2620;SDS011;1320;48.128;11.592;2024-01-06T09:23:06;7.97;;;2.67;;
2620;SDS011;1320;48.128;11.592;2024-01-06T09:25:31;6.63;;;2.40;;
2620;SDS011;1320;48.128;11.592;2024-01-06T09:27:57;6.87;;;2.43;;
2620;SDS011;1320;48.128;11.592;2024-01-06T09:30:23;10.52;;;1.92;;
2620;SDS011;1320;48.128;11.592;2024-01-06T09:32:50;5.32;;;2.15;;
2620;SDS011;1320;48.128;11.592;2024-01-06T09:35:15;6.37;;;2.03;;
2620;SDS011;1320;48.128;11.592;2024-01-06T09:37:41;6.87;;;2.87;;
2620;SDS011;1320;48.128;11.592;2024-01-06T09:40:08;5.33;;;2.30;;
2620;SDS011;1320;48.128;11.592;2024-01-06T09:42:38;9.63;;;2.63;;
2620;SDS011;1320;48.128;11.592;2024-01-06T09:45:04;7.73;;;2.90;;
2620;SDS011;1320;48.128;11.592;2024-01-06T09:47:30;5.47;;;2.30;;
2620;SDS011;1320;48.128;11.592;2024-01-06T09:49:58;14.40;;;9.07;;
2620;SDS011;1320;48.128;11.592;2024-01-06T09:52:29;9.38;;;5.18;;
2620;SDS011;1320;48.128;11.592;2024-01-06T09:54:58;15.38;;;7.55;;
2620;SDS011;1320;48.128;11.592;2024-01-06T09:57:25;7.38;;;3.45;;
2620;SDS011;1320;48.128;11.592;2024-01-06T09:59:51;10.95;;;4.95;;
2620;SDS011;1320;48.128;11.592;2024-01-06T10:02:18;8.18;;;3.33;;
2620;SDS011;1320;48.128;11.592;2024-01-06T10:04:45;7.25;;;2.78;;
2620;SDS011;1320;48.128;11.592;2024-01-06T10:07:11;10.90;;;6.30;;
2620;SDS011;1320;48.128;11.592;2024-01-06T10:09:41;14.82;;;4.70;;
2620;SDS011;1320;48.128;11.592;2024-01-06T10:12:07;7.60;;;3.78;;
2620;SDS011;1320;48.128;11.592;2024-01-06T10:14:33;7.85;;;2.85;;
2620;SDS011;1320;48.128;11.592;2024-01-06T10:16:59;10.00;;;3.50;;
2620;SDS011;1320;48.128;11.592;2024-01-06T10:19:24;10.30;;;4.20;;
2620;SDS011;1320;48.128;11.592;2024-01-06T10:21:51;7.30;;;3.72;;
2620;SDS011;1320;48.128;11.592;2024-01-06T10:24:17;10.20;;;3.10;;
2620;SDS011;1320;48.128;11.592;2024-01-06T10:26:44;11.63;;;4.30;;
2620;SDS011;1320;48.128;11.592;2024-01-06T10:29:10;10.07;;;4.25;;
2620;SDS011;1320;48.128;11.592;2024-01-06T10:31:38;6.70;;;2.75;;
2620;SDS011;1320;48.128;11.592;2024-01-06T10:34:03;7.30;;;3.13;;
2620;SDS011;1320;48.128;11.592;2024-01-06T10:36:31;8.40;;;4.20;;
2620;SDS011;1320;48.128;11.592;2024-01-06T10:38:57;9.02;;;3.80;;
2620;SDS011;1320;48.128;11.592;2024-01-06T10:41:22;8.30;;;3.83;;
2620;SDS011;1320;48.128;11.592;2024-01-06T10:43:50;9.52;;;4.20;;
2620;SDS011;1320;48.128;11.592;2024-01-06T10:46:18;7.35;;;3.70;;
2620;SDS011;1320;48.128;11.592;2024-01-06T10:48:44;14.15;;;8.20;;
2620;SDS011;1320;48.128;11.592;2024-01-06T10:51:12;15.98;;;5.60;;
2620;SDS011;1320;48.128;11.592;2024-01-06T10:53:40;10.75;;;3.83;;
2620;SDS011;1320;48.128;11.592;2024-01-06T10:56:06;7.38;;;4.43;;
2620;SDS011;1320;48.128;11.592;2024-01-06T10:58:36;7.80;;;4.25;;
2620;SDS011;1320;48.128;11.592;2024-01-06T11:01:08;8.13;;;3.30;;
2620;SDS011;1320;48.128;11.592;2024-01-06T11:03:35;7.90;;;3.38;;
2620;SDS011;1320;48.128;11.592;2024-01-06T11:06:03;7.70;;;4.45;;
2620;SDS011;1320;48.128;11.592;2024-01-06T11:08:36;11.60;;;4.75;;
2620;SDS011;1320;48.128;11.592;2024-01-06T11:11:15;8.88;;;3.97;;
2620;SDS011;1320;48.128;11.592;2024-01-06T11:13:44;9.60;;;5.35;;
2620;SDS011;1320;48.128;11.592;2024-01-06T11:16:11;11.38;;;5.47;;
2620;SDS011;1320;48.128;11.592;2024-01-06T11:18:58;7.13;;;4.30;;
2620;SDS011;1320;48.128;11.592;2024-01-06T11:21:23;7.03;;;3.23;;
2620;SDS011;1320;48.128;11.592;2024-01-06T11:26:45;8.93;;;4.45;;
2620;SDS011;1320;48.128;11.592;2024-01-06T11:29:14;8.57;;;4.05;;
2620;SDS011;1320;48.128;11.592;2024-01-06T11:31:40;6.87;;;4.07;;
2620;SDS011;1320;48.128;11.592;2024-01-06T11:34:15;9.20;;;4.87;;
2620;SDS011;1320;48.128;11.592;2024-01-06T11:36:45;13.10;;;5.93;;
2620;SDS011;1320;48.128;11.592;2024-01-06T11:42:01;9.35;;;4.82;;
2620;SDS011;1320;48.128;11.592;2024-01-06T11:44:28;7.45;;;5.07;;
2620;SDS011;1320;48.128;11.592;2024-01-06T11:46:56;9.77;;;5.68;;
2620;SDS011;1320;48.128;11.592;2024-01-06T11:49:22;14.02;;;6.45;;
2620;SDS011;1320;48.128;11.592;2024-01-06T11:51:58;7.57;;;4.30;;
2620;SDS011;1320;48.128;11.592;2024-01-06T11:54:24;9.75;;;4.60;;
2620;SDS011;1320;48.128;11.592;2024-01-06T11:56:50;7.73;;;4.40;;
2620;SDS011;1320;48.128;11.592;2024-01-06T11:59:19;6.72;;;4.15;;
2620;SDS011;1320;48.128;11.592;2024-01-06T12:01:45;10.38;;;4.50;;
2620;SDS011;1320;48.128;11.592;2024-01-06T12:04:13;15.73;;;7.75;;
2620;SDS011;1320;48.128;11.592;2024-01-06T12:06:40;11.80;;;5.10;;
2620;SDS011;1320;48.128;11.592;2024-01-06T12:09:07;9.88;;;4.53;;
2620;SDS011;1320;48.128;11.592;2024-01-06T12:11:40;9.25;;;5.50;;
2620;SDS011;1320;48.128;11.592;2024-01-06T12:14:06;10.65;;;5.65;;
2620;SDS011;1320;48.128;11.592;2024-01-06T12:16:32;9.53;;;5.30;;
2620;SDS011;1320;48.128;11.592;2024-01-06T12:18:58;7.67;;;5.33;;
2620;SDS011;1320;48.128;11.592;2024-01-06T12:21:29;10.02;;;5.45;;
2620;SDS011;1320;48.128;11.592;2024-01-06T12:24:15;11.82;;;5.25;;
2620;SDS011;1320;48.128;11.592;2024-01-06T12:26:45;10.18;;;5.75;;
2620;SDS011;1320;48.128;11.592;2024-01-06T12:29:12;10.15;;;4.93;;
2620;SDS011;1320;48.128;11.592;2024-01-06T12:31:41;10.10;;;6.22;;
2620;SDS011;1320;48.128;11.592;2024-01-06T12:34:08;12.10;;;5.13;;
2620;SDS011;1320;48.128;11.592;2024-01-06T12:36:35;10.48;;;4.90;;
2620;SDS011;1320;48.128;11.592;2024-01-06T12:39:02;8.60;;;4.90;;
2620;SDS011;1320;48.128;11.592;2024-01-06T12:41:29;9.90;;;4.25;;
2620;SDS011;1320;48.128;11.592;2024-01-06T12:43:54;12.60;;;4.93;;
2620;SDS011;1320;48.128;11.592;2024-01-06T12:46:20;7.80;;;4.47;;
2620;SDS011;1320;48.128;11.592;2024-01-06T12:48:46;9.90;;;5.23;;
2620;SDS011;1320;48.128;11.592;2024-01-06T12:51:11;11.43;;;5.10;;
2620;SDS011;1320;48.128;11.592;2024-01-06T12:53:37;12.10;;;4.97;;
2620;SDS011;1320;48.128;11.592;2024-01-06T12:56:03;11.07;;;5.43;;
2620;SDS011;1320;48.128;11.592;2024-01-06T12:58:29;9.63;;;5.20;;
2620;SDS011;1320;48.128;11.592;2024-01-06T13:00:54;18.03;;;5.60;;
2620;SDS011;1320;48.128;11.592;2024-01-06T13:03:20;7.97;;;4.00;;
2620;SDS011;1320;48.128;11.592;2024-01-06T13:05:45;8.10;;;4.20;;
2620;SDS011;1320;48.128;11.592;2024-01-06T13:08:12;10.70;;;3.70;;
2620;SDS011;1320;48.128;11.592;2024-01-06T13:10:38;8.73;;;3.67;;
2620;SDS011;1320;48.128;11.592;2024-01-06T13:13:05;8.82;;;4.25;;
2620;SDS011;1320;48.128;11.592;2024-01-06T13:15:31;8.90;;;3.83;;
2620;SDS011;1320;48.128;11.592;2024-01-06T13:17:56;15.80;;;5.00;;
2620;SDS011;1320;48.128;11.592;2024-01-06T13:20:25;10.97;;;4.27;;
2620;SDS011;1320;48.128;11.592;2024-01-06T13:22:51;10.27;;;4.53;;
2620;SDS011;1320;48.128;11.592;2024-01-06T13:25:17;13.00;;;4.60;;
2620;SDS011;1320;48.128;11.592;2024-01-06T13:27:45;8.70;;;3.35;;
2620;SDS011;1320;48.128;11.592;2024-01-06T13:30:10;12.23;;;4.27;;
2620;SDS011;1320;48.128;11.592;2024-01-06T13:32:38;15.10;;;4.03;;
2620;SDS011;1320;48.128;11.592;2024-01-06T13:35:03;10.63;;;4.80;;
2620;SDS011;1320;48.128;11.592;2024-01-06T13:37:31;8.60;;;4.35;;
2620;SDS011;1320;48.128;11.592;2024-01-06T13:39:57;9.82;;;4.88;;
2620;SDS011;1320;48.128;11.592;2024-01-06T13:42:22;9.70;;;4.93;;
2620;SDS011;1320;48.128;11.592;2024-01-06T13:44:48;8.43;;;4.57;;
2620;SDS011;1320;48.128;11.592;2024-01-06T13:47:14;10.50;;;4.70;;
2620;SDS011;1320;48.128;11.592;2024-01-06T13:49:40;9.13;;;4.90;;
2620;SDS011;1320;48.128;11.592;2024-01-06T13:52:06;10.50;;;4.30;;
2620;SDS011;1320;48.128;11.592;2024-01-06T13:54:35;11.32;;;7.25;;
2620;SDS011;1320;48.128;11.592;2024-01-06T13:57:01;10.97;;;6.60;;
2620;SDS011;1320;48.128;11.592;2024-01-06T13:59:26;11.20;;;4.83;;
2620;SDS011;1320;48.128;11.592;2024-01-06T14:01:53;13.37;;;6.90;;
2620;SDS011;1320;48.128;11.592;2024-01-06T14:04:19;10.57;;;7.18;;
2620;SDS011;1320;48.128;11.592;2024-01-06T14:06:45;19.03;;;6.13;;
2620;SDS011;1320;48.128;11.592;2024-01-06T14:09:12;10.40;;;5.60;;
2620;SDS011;1320;48.128;11.592;2024-01-06T14:11:38;9.50;;;4.97;;
2620;SDS011;1320;48.128;11.592;2024-01-06T14:14:04;8.30;;;5.23;;
2620;SDS011;1320;48.128;11.592;2024-01-06T14:16:30;7.63;;;4.90;;
2620;SDS011;1320;48.128;11.592;2024-01-06T14:18:56;9.23;;;4.70;;
2620;SDS011;1320;48.128;11.592;2024-01-06T14:21:21;10.80;;;5.40;;
2620;SDS011;1320;48.128;11.592;2024-01-06T14:23:47;7.30;;;4.17;;
2620;SDS011;1320;48.128;11.592;2024-01-06T14:26:16;8.95;;;3.78;;
2620;SDS011;1320;48.128;11.592;2024-01-06T14:28:44;10.02;;;4.82;;
2620;SDS011;1320;48.128;11.592;2024-01-06T14:31:11;9.73;;;4.50;;
2620;SDS011;1320;48.128;11.592;2024-01-06T14:33:36;11.23;;;4.97;;
2620;SDS011;1320;48.128;11.592;2024-01-06T14:36:02;9.27;;;4.47;;
2620;SDS011;1320;48.128;11.592;2024-01-06T14:38:28;6.45;;;4.15;;
2620;SDS011;1320;48.128;11.592;2024-01-06T14:40:54;8.90;;;4.50;;
2620;SDS011;1320;48.128;11.592;2024-01-06T14:43:20;10.33;;;4.40;;
2620;SDS011;1320;48.128;11.592;2024-01-06T14:45:46;7.50;;;4.50;;
2620;SDS011;1320;48.128;11.592;2024-01-06T14:48:12;8.07;;;4.93;;
2620;SDS011;1320;48.128;11.592;2024-01-06T14:50:38;9.57;;;5.23;;
2620;SDS011;1320;48.128;11.592;2024-01-06T14:53:03;10.70;;;6.27;;
2620;SDS011;1320;48.128;11.592;2024-01-06T14:55:29;12.40;;;5.60;;
2620;SDS011;1320;48.128;11.592;2024-01-06T14:57:55;10.70;;;5.97;;